createdAt,value
2023-10-08T00:01:41.801Z,22.1
2023-10-08T00:05:02.041Z,22.1
2023-10-08T00:08:29.528Z,22.1
2023-10-08T00:10:13.172Z,22.1
2023-10-08T00:11:56.886Z,22.2
2023-10-08T00:13:47.616Z,22.1
2023-10-08T00:15:31.250Z,22.2
2023-10-08T00:17:14.965Z,22.1
2023-10-08T00:18:51.679Z,22.2
2023-10-08T00:20:35.356Z,22.1
2023-10-08T00:25:53.514Z,22.2
2023-10-08T00:29:13.848Z,22.2
2023-10-08T00:31:04.562Z,22.2
2023-10-08T00:32:41.282Z,22.2
2023-10-08T00:36:15.668Z,22.2
2023-10-08T00:37:59.397Z,22.2
2023-10-08T00:43:03.478Z,22.2
2023-10-08T00:44:47.197Z,22.2
2023-10-08T00:50:05.280Z,22.2
2023-10-08T00:53:25.697Z,22.2
2023-10-08T00:55:16.537Z,22.2
2023-10-08T00:57:00.105Z,22.2
2023-10-08T00:58:36.821Z,22.2
2023-10-08T01:02:11.242Z,22.2
2023-10-08T01:05:31.608Z,22.2
2023-10-08T01:07:15.319Z,22.2
2023-10-08T01:08:58.995Z,22.2
2023-10-08T01:12:33.424Z,22.2
2023-10-08T01:14:10.110Z,22.2
2023-10-08T01:15:53.841Z,22.2
2023-10-08T01:17:37.524Z,22.2
2023-10-08T01:19:21.240Z,22.2
2023-10-08T01:21:11.925Z,22.2
2023-10-08T01:22:55.702Z,22.2
2023-10-08T01:26:23.027Z,22.2
2023-10-08T01:27:59.713Z,22.2
2023-10-08T01:29:50.450Z,22.2
2023-10-08T01:33:10.845Z,22.2
2023-10-08T01:35:01.551Z,22.2
2023-10-08T01:43:40.029Z,22.2
2023-10-08T01:45:16.736Z,22.2
2023-10-08T01:48:51.200Z,22.2
2023-10-08T01:50:27.839Z,22.2
2023-10-08T01:52:11.534Z,22.2
2023-10-08T01:53:55.275Z,22.2
2023-10-08T01:55:45.934Z,22.2
2023-10-08T01:57:22.705Z,22.2
2023-10-08T02:00:57.070Z,22.2
2023-10-08T02:02:33.761Z,22.2
2023-10-08T02:04:17.505Z,22.2
2023-10-08T02:07:51.830Z,22.2
2023-10-08T02:09:28.549Z,22.2
2023-10-08T02:11:19.247Z,22.2
2023-10-08T02:12:55.946Z,22.2
2023-10-08T02:14:39.652Z,22.2
2023-10-08T02:16:23.352Z,22.2
2023-10-08T02:21:34.445Z,22.2
2023-10-08T02:23:25.153Z,22.2
2023-10-08T02:25:01.885Z,22.2
2023-10-08T02:26:52.568Z,22.2
2023-10-08T02:31:56.699Z,22.2
2023-10-08T02:38:51.460Z,22.2
2023-10-08T02:40:42.172Z,22.2
2023-10-08T02:44:02.601Z,22.2
2023-10-08T02:45:46.284Z,22.2
2023-10-08T02:49:20.682Z,22.2
2023-10-08T02:51:04.402Z,22.2
2023-10-08T02:52:41.082Z,22.2
2023-10-08T02:57:59.189Z,22.2
2023-10-08T02:59:35.888Z,22.2
2023-10-08T03:01:19.596Z,22.2
2023-10-08T03:06:30.696Z,22.2
2023-10-08T03:08:14.470Z,22.2
2023-10-08T03:10:05.105Z,22.1
2023-10-08T03:13:25.511Z,22.1
2023-10-08T03:15:16.257Z,22.2
2023-10-08T03:16:59.935Z,22.2
2023-10-08T03:20:20.313Z,22.1
2023-10-08T03:22:11.017Z,22.1
2023-10-08T03:27:15.150Z,22.1
2023-10-08T03:29:05.847Z,22.1
2023-10-08T03:32:33.245Z,22.1
2023-10-08T03:35:53.642Z,22.1
2023-10-08T03:37:37.341Z,22.1
2023-10-08T03:41:04.752Z,22.1
2023-10-08T03:44:32.138Z,22.1
2023-10-08T03:47:59.549Z,22.1
2023-10-08T03:49:43.249Z,22.1
2023-10-08T03:51:27.012Z,22.1
2023-10-08T03:53:17.659Z,22.1
2023-10-08T03:54:54.412Z,22.1
2023-10-08T03:58:21.753Z,22.1
2023-10-08T04:00:12.463Z,22.1
2023-10-08T04:01:49.166Z,22.1
2023-10-08T04:05:23.606Z,22.1
2023-10-08T04:07:07.284Z,22.1
2023-10-08T04:08:43.996Z,22.1
2023-10-08T04:15:38.935Z,22.1
2023-10-08T04:20:49.883Z,22.1
2023-10-08T04:22:33.575Z,22.1
2023-10-08T04:24:17.278Z,22.1
2023-10-08T04:26:01.021Z,22.1
2023-10-08T04:27:44.704Z,22.1
2023-10-08T04:33:02.857Z,22.1
2023-10-08T04:34:39.487Z,22.1
2023-10-08T04:36:23.223Z,22.1
2023-10-08T04:38:13.890Z,22.1
2023-10-08T04:43:18.008Z,22.1
2023-10-08T04:46:52.424Z,22.1
2023-10-08T04:50:12.804Z,22.1
2023-10-08T04:53:47.217Z,22.1
2023-10-08T04:55:30.912Z,22.1
2023-10-08T04:57:07.611Z,22.1
2023-10-08T04:58:51.352Z,22.1
2023-10-08T05:00:35.031Z,22.1
2023-10-08T05:04:02.435Z,22.1
2023-10-08T05:07:29.849Z,22.1
2023-10-08T05:09:20.528Z,22.1
2023-10-08T05:10:57.233Z,22.1
2023-10-08T05:12:47.931Z,22.1
2023-10-08T05:14:24.628Z,22.1
2023-10-08T05:16:08.322Z,22.1
2023-10-08T05:17:52.043Z,22.1
2023-10-08T05:19:42.752Z,22.1
2023-10-08T05:23:10.135Z,22.1
2023-10-08T05:24:53.840Z,22.1
2023-10-08T05:29:57.946Z,22.1
2023-10-08T05:31:41.647Z,22.1
2023-10-08T05:33:32.376Z,22.1
2023-10-08T05:35:16.182Z,22.1
2023-10-08T05:36:52.774Z,22.1
2023-10-08T05:40:27.164Z,22.1
2023-10-08T05:42:10.920Z,22.1
2023-10-08T05:45:31.298Z,22.1
2023-10-08T05:48:58.656Z,22.1
2023-10-08T05:50:42.380Z,22.1
2023-10-08T05:52:26.075Z,22.1
2023-10-08T05:54:16.835Z,22.1
2023-10-08T05:55:53.578Z,22.1
2023-10-08T05:59:20.922Z,22.1
2023-10-08T06:02:48.417Z,22.1
2023-10-08T06:04:31.990Z,22.1
2023-10-08T06:07:59.584Z,22.1
2023-10-08T06:09:50.131Z,22.1
2023-10-08T06:11:26.789Z,22.1
2023-10-08T06:14:54.192Z,22.1
2023-10-08T06:16:37.902Z,22.1
2023-10-08T06:20:05.410Z,22.1
2023-10-08T06:21:49.028Z,22.1
2023-10-08T06:23:32.691Z,22.1
2023-10-08T06:27:07.101Z,22.1
2023-10-08T06:28:43.815Z,22.1
2023-10-08T06:30:27.542Z,22.1
2023-10-08T06:32:18.276Z,22.1
2023-10-08T06:37:22.319Z,22.1
2023-10-08T06:39:06.066Z,22.1
2023-10-08T06:40:49.734Z,22.1
2023-10-08T06:42:40.444Z,22.1
2023-10-08T06:44:17.224Z,22.1
2023-10-08T06:47:44.540Z,22.1
2023-10-08T06:51:11.926Z,22.1
2023-10-08T06:54:46.335Z,22.1
2023-10-08T06:56:30.034Z,22.1
2023-10-08T06:58:06.732Z,22.1
2023-10-08T07:01:34.138Z,22.1
2023-10-08T07:03:24.847Z,22.1
2023-10-08T07:06:45.337Z,22.1
2023-10-08T07:08:28.729Z,22.1
2023-10-08T07:10:19.410Z,22.1
2023-10-08T07:11:56.208Z,22.1
2023-10-08T07:13:46.759Z,22.1
2023-10-08T07:15:30.451Z,22.1
2023-10-08T07:17:07.208Z,22.1
2023-10-08T07:18:50.933Z,22.1
2023-10-08T07:20:41.574Z,22.1
2023-10-08T07:24:08.949Z,22.1
2023-10-08T07:25:45.657Z,22.1
2023-10-08T07:29:13.167Z,22.1
2023-10-08T07:31:03.788Z,22.1
2023-10-08T07:32:47.508Z,22.1
2023-10-08T07:34:24.188Z,22.1
2023-10-08T07:36:14.863Z,22.1
2023-10-08T07:41:18.970Z,22.1
2023-10-08T07:44:46.381Z,22.1
2023-10-08T07:46:30.082Z,22.1
2023-10-08T07:48:13.800Z,22.1
2023-10-08T07:53:24.908Z,22.1
2023-10-08T07:55:15.640Z,22.1
2023-10-08T07:56:52.297Z,22.1
2023-10-08T07:58:43.074Z,22.1
2023-10-08T08:00:19.691Z,22.1
2023-10-08T08:03:54.097Z,22.1
2023-10-08T08:05:37.797Z,22.1
2023-10-08T08:07:21.524Z,22.1
2023-10-08T08:09:05.210Z,22.1
2023-10-08T08:10:48.914Z,22.1
2023-10-08T08:14:09.314Z,22.1
2023-10-08T08:15:53.015Z,22.1
2023-10-08T08:17:43.716Z,22.1
2023-10-08T08:19:27.413Z,22.1
2023-10-08T08:21:04.130Z,22.1
2023-10-08T08:22:54.849Z,22.1
2023-10-08T08:24:38.528Z,22.1
2023-10-08T08:26:22.225Z,22.1
2023-10-08T08:27:58.921Z,22.1
2023-10-08T08:29:42.638Z,22.2
2023-10-08T08:31:26.375Z,22.1
2023-10-08T08:33:10.053Z,22.1
2023-10-08T08:34:53.757Z,22.2
2023-10-08T08:36:44.457Z,22.2
2023-10-08T08:38:21.136Z,22.2
2023-10-08T08:40:04.845Z,22.2
2023-10-08T08:43:32.283Z,22.2
2023-10-08T08:45:22.971Z,22.2
2023-10-08T08:46:59.664Z,22.2
2023-10-08T08:48:43.365Z,22.2
2023-10-08T08:50:27.068Z,22.2
2023-10-08T08:52:10.770Z,22.2
2023-10-08T08:53:54.471Z,22.2
2023-10-08T08:57:21.901Z,22.2
2023-10-08T09:00:49.401Z,22.2
2023-10-08T09:02:39.966Z,22.2
2023-10-08T09:04:16.691Z,22.2
2023-10-08T09:06:00.406Z,22.2
2023-10-08T09:07:51.078Z,22.2
2023-10-08T09:11:11.478Z,22.2
2023-10-08T09:14:38.896Z,22.2
2023-10-08T09:16:22.578Z,22.2
2023-10-08T09:18:06.328Z,22.2
2023-10-08T09:19:49.973Z,22.2
2023-10-08T09:23:17.397Z,22.2
2023-10-08T09:25:01.084Z,22.2
2023-10-08T09:26:44.791Z,22.2
2023-10-08T09:30:12.189Z,22.2
2023-10-08T09:31:55.910Z,22.2
2023-10-08T09:33:39.616Z,22.2
2023-10-08T09:35:23.300Z,22.2
2023-10-08T09:38:50.705Z,22.2
2023-10-08T09:40:41.533Z,22.2
2023-10-08T09:42:25.142Z,22.2
2023-10-08T09:44:08.917Z,22.2
2023-10-08T09:45:45.512Z,22.2
2023-10-08T09:47:29.254Z,22.2
2023-10-08T09:49:19.948Z,22.3
2023-10-08T09:51:03.626Z,22.3
2023-10-08T09:52:40.317Z,22.3
2023-10-08T09:54:24.046Z,22.3
2023-10-08T09:56:07.723Z,22.3
2023-10-08T09:57:58.437Z,22.3
2023-10-08T09:59:35.135Z,22.3
2023-10-08T10:01:18.841Z,22.3
2023-10-08T10:04:46.302Z,22.3
2023-10-08T10:06:29.984Z,22.3
2023-10-08T10:08:13.720Z,22.3
2023-10-08T10:09:57.359Z,22.3
2023-10-08T10:11:41.047Z,22.3
2023-10-08T10:13:24.891Z,22.3
2023-10-08T10:15:08.456Z,22.3
2023-10-08T10:16:52.147Z,22.4
2023-10-08T10:20:19.562Z,22.4
2023-10-08T10:22:03.246Z,22.4
2023-10-08T10:23:46.997Z,22.4
2023-10-08T10:25:30.659Z,22.4
2023-10-08T10:27:14.356Z,22.4
2023-10-08T10:28:58.083Z,22.4
2023-10-08T10:30:48.814Z,22.4
2023-10-08T10:32:32.482Z,22.4
2023-10-08T10:34:09.199Z,22.4
2023-10-08T10:35:52.869Z,22.4
2023-10-08T10:37:43.635Z,22.4
2023-10-08T10:39:20.277Z,22.4
2023-10-08T10:41:04.048Z,22.4
2023-10-08T10:42:54.683Z,22.4
2023-10-08T10:44:31.390Z,22.4
2023-10-08T10:46:15.092Z,22.4
2023-10-08T10:47:58.811Z,22.4
2023-10-08T10:49:49.487Z,22.4
2023-10-08T10:51:26.187Z,22.4
2023-10-08T10:56:37.293Z,22.4
2023-10-08T10:58:21.016Z,22.4
2023-10-08T11:01:48.399Z,22.4
2023-10-08T11:03:32.101Z,22.4
2023-10-08T11:05:15.848Z,22.4
2023-10-08T11:08:43.321Z,22.4
2023-10-08T11:10:26.911Z,22.4
2023-10-08T11:12:10.620Z,22.4
2023-10-08T11:13:54.320Z,22.5
2023-10-08T11:15:45.008Z,22.5
2023-10-08T11:17:21.738Z,22.5
2023-10-08T11:19:12.432Z,22.5
2023-10-08T11:20:49.177Z,22.5
2023-10-08T11:22:32.861Z,22.5
2023-10-08T11:24:16.536Z,22.5
2023-10-08T11:27:43.936Z,22.5
2023-10-08T11:29:34.790Z,22.5
2023-10-08T11:31:18.383Z,22.5
2023-10-08T11:32:55.030Z,22.5
2023-10-08T11:34:38.730Z,22.5
2023-10-08T11:36:22.537Z,22.5
2023-10-08T11:38:06.170Z,22.5
2023-10-08T11:40:10.472Z,22.5
2023-10-08T11:41:40.543Z,22.5
2023-10-08T11:43:17.274Z,22.5
2023-10-08T11:46:44.655Z,22.5
2023-10-08T11:48:28.377Z,22.5
2023-10-08T11:50:12.080Z,22.5
2023-10-08T11:51:55.756Z,22.5
2023-10-08T11:53:39.653Z,22.5
2023-10-08T11:55:23.163Z,22.5
2023-10-08T11:57:06.869Z,22.5
2023-10-08T11:58:50.796Z,22.5
2023-10-08T12:00:34.260Z,22.5
2023-10-08T12:02:17.991Z,22.5
2023-10-08T12:04:22.280Z,22.5
2023-10-08T12:05:52.387Z,22.5
2023-10-08T12:07:29.184Z,22.5
2023-10-08T12:09:12.770Z,22.5
2023-10-08T12:11:03.502Z,22.5
2023-10-08T12:14:23.900Z,22.6
2023-10-08T12:16:07.621Z,22.6
2023-10-08T12:17:51.349Z,22.6
2023-10-08T12:23:02.483Z,22.6
2023-10-08T12:24:46.276Z,22.6
2023-10-08T12:26:29.867Z,22.6
2023-10-08T12:28:20.520Z,22.6
2023-10-08T12:29:57.189Z,22.6
2023-10-08T12:31:47.901Z,22.7
2023-10-08T12:33:45.237Z,22.7
2023-10-08T12:35:08.363Z,22.7
2023-10-08T12:36:52.006Z,22.7
2023-10-08T12:38:42.713Z,22.7
2023-10-08T12:40:26.506Z,22.7
2023-10-08T12:42:10.142Z,22.7
2023-10-08T12:43:53.821Z,22.7
2023-10-08T12:45:30.550Z,22.8
2023-10-08T12:47:21.214Z,22.8
2023-10-08T12:54:09.030Z,22.8
2023-10-08T12:56:13.338Z,22.8
2023-10-08T12:57:36.428Z,22.8
2023-10-08T12:59:27.285Z,22.8
2023-10-08T13:01:03.864Z,22.9
2023-10-08T13:02:47.535Z,22.9
2023-10-08T13:04:31.274Z,22.9
2023-10-08T13:06:21.956Z,22.9
2023-10-08T13:07:58.682Z,22.9
2023-10-08T13:09:42.342Z,22.9
2023-10-08T13:11:26.160Z,22.9
2023-10-08T13:13:09.812Z,23
2023-10-08T13:14:53.506Z,23
2023-10-08T13:18:20.863Z,23
2023-10-08T13:21:48.260Z,23
2023-10-08T13:23:31.969Z,23
2023-10-08T13:25:15.684Z,23.1
2023-10-08T13:26:59.389Z,23.1
2023-10-08T13:28:50.087Z,23.1
2023-10-08T13:30:26.767Z,23.1
2023-10-08T13:32:10.474Z,23.1
2023-10-08T13:33:54.179Z,23.1
2023-10-08T13:35:44.892Z,23.1
2023-10-08T13:37:28.600Z,23.1
2023-10-08T13:39:12.290Z,23.1
2023-10-08T13:40:49.002Z,23.1
2023-10-08T13:42:39.697Z,23.1
2023-10-08T13:44:23.409Z,23.1
2023-10-08T13:47:43.808Z,23.1
2023-10-08T13:49:27.518Z,23.1
2023-10-08T13:51:11.216Z,23.1
2023-10-08T13:52:54.923Z,23.2
2023-10-08T13:54:38.637Z,23.2
2023-10-08T13:56:22.306Z,23.2
2023-10-08T13:58:06.077Z,23.2
2023-10-08T13:59:49.725Z,23.2
2023-10-08T14:01:40.427Z,23.2
2023-10-08T14:03:17.137Z,23.2
2023-10-08T14:05:07.831Z,23.2
2023-10-08T14:06:44.524Z,23.2
2023-10-08T14:08:35.255Z,23.2
2023-10-08T14:10:11.902Z,23.2
2023-10-08T14:11:55.615Z,23.2
2023-10-08T14:13:39.323Z,23.2
2023-10-08T14:15:23.029Z,23.2
2023-10-08T14:17:06.730Z,23.2
2023-10-08T14:18:50.442Z,23.2
2023-10-08T14:20:34.160Z,23.2
2023-10-08T14:22:17.867Z,23.3
2023-10-08T14:24:01.520Z,23.3
2023-10-08T14:27:28.937Z,23.3
2023-10-08T14:29:12.659Z,23.3
2023-10-08T14:30:56.331Z,23.3
2023-10-08T14:36:07.465Z,23.3
2023-10-08T14:37:51.189Z,23.3
2023-10-08T14:39:41.944Z,23.3
2023-10-08T14:41:18.643Z,23.3
2023-10-08T14:43:09.265Z,23.3
2023-10-08T14:44:45.958Z,23.3
2023-10-08T14:46:29.658Z,23.3
2023-10-08T14:48:13.369Z,23.3
2023-10-08T14:49:57.055Z,23.3
2023-10-08T14:51:40.854Z,23.3
2023-10-08T14:53:24.544Z,23.3
2023-10-08T14:55:08.227Z,23.3
2023-10-08T14:58:35.577Z,23.2
2023-10-08T15:03:46.739Z,23.2
2023-10-08T15:07:14.236Z,23.2
2023-10-08T15:08:57.886Z,23.2
2023-10-08T15:10:41.501Z,23.2
2023-10-08T15:12:25.235Z,23.2
2023-10-08T15:14:08.994Z,23.2
2023-10-08T15:15:59.782Z,23.2
2023-10-08T15:17:36.532Z,23.2
2023-10-08T15:19:20.132Z,23.3
2023-10-08T15:21:03.849Z,23.3
2023-10-08T15:22:54.528Z,23.3
2023-10-08T15:24:31.168Z,23.3
2023-10-08T15:26:14.864Z,23.3
2023-10-08T15:27:58.707Z,23.3
2023-10-08T15:29:42.285Z,23.3
2023-10-08T15:31:25.922Z,23.3
2023-10-08T15:36:37.136Z,23.3
2023-10-08T15:38:20.781Z,23.2
2023-10-08T15:40:04.442Z,23.2
2023-10-08T15:41:48.197Z,23.2
2023-10-08T15:43:31.926Z,23.2
2023-10-08T15:45:15.644Z,23.2
2023-10-08T15:46:59.391Z,23.2
2023-10-08T15:48:42.955Z,23.2
2023-10-08T15:50:26.687Z,23.2
2023-10-08T15:52:10.348Z,23.2
2023-10-08T15:54:01.112Z,23.2
2023-10-08T15:55:37.755Z,23.2
2023-10-08T15:57:21.501Z,23.2
2023-10-08T15:59:05.147Z,23.2
2023-10-08T16:00:48.902Z,23.2
2023-10-08T16:02:32.566Z,23.2
2023-10-08T16:07:43.671Z,23.1
2023-10-08T16:11:11.080Z,23.1
2023-10-08T16:12:54.781Z,23.1
2023-10-08T16:14:38.477Z,23.1
2023-10-08T16:16:22.182Z,23.1
2023-10-08T16:18:05.890Z,23.1
2023-10-08T16:21:33.297Z,23.1
2023-10-08T16:23:17.002Z,23.1
2023-10-08T16:25:00.688Z,23.1
2023-10-08T16:26:51.402Z,23.1
2023-10-08T16:28:28.158Z,23
2023-10-08T16:30:18.848Z,23
2023-10-08T16:32:02.541Z,23.1
2023-10-08T16:37:06.620Z,23
2023-10-08T16:38:57.311Z,23
2023-10-08T16:40:41.060Z,23
2023-10-08T16:42:24.711Z,23
2023-10-08T16:44:01.415Z,23
2023-10-08T16:45:45.116Z,23
2023-10-08T16:47:28.827Z,23
2023-10-08T16:49:33.126Z,23
2023-10-08T16:50:56.229Z,22.9
2023-10-08T16:52:39.936Z,22.9
2023-10-08T16:54:23.629Z,22.9
2023-10-08T16:56:14.337Z,22.9
2023-10-08T16:57:51.037Z,22.9
2023-10-08T16:59:41.755Z,22.9
2023-10-08T17:01:18.483Z,22.9
2023-10-08T17:04:45.828Z,22.9
2023-10-08T17:06:29.527Z,22.8
2023-10-08T17:08:13.266Z,22.8
2023-10-08T17:10:17.549Z,22.8
2023-10-08T17:11:40.652Z,22.8
2023-10-08T17:13:24.440Z,22.8
2023-10-08T17:15:08.127Z,22.8
2023-10-08T17:17:12.409Z,22.8
2023-10-08T17:18:35.469Z,22.8
2023-10-08T17:20:26.193Z,22.8
2023-10-08T17:22:09.990Z,22.8
2023-10-08T17:23:46.808Z,22.8
2023-10-08T17:25:37.306Z,22.7
2023-10-08T17:27:14.089Z,22.7
2023-10-08T17:30:41.580Z,22.8
2023-10-08T17:32:45.923Z,22.8
2023-10-08T17:34:09.024Z,22.8
2023-10-08T17:35:59.570Z,22.8
2023-10-08T17:37:36.427Z,22.8
2023-10-08T17:39:26.875Z,22.8
2023-10-08T17:41:03.651Z,22.8
2023-10-08T17:42:47.356Z,22.8
2023-10-08T17:44:31.125Z,22.8
2023-10-08T17:46:14.685Z,22.8
2023-10-08T17:47:58.540Z,22.8
2023-10-08T17:49:42.183Z,22.8
2023-10-08T17:51:25.813Z,22.8
2023-10-08T17:53:09.717Z,22.8
2023-10-08T17:56:36.934Z,22.8
2023-10-08T18:00:04.342Z,22.8
2023-10-08T18:01:48.056Z,22.8
2023-10-08T18:06:59.103Z,22.8
2023-10-08T18:08:42.935Z,22.8
2023-10-08T18:10:26.565Z,22.8
2023-10-08T18:12:10.317Z,22.8
2023-10-08T18:19:05.077Z,22.8
2023-10-08T18:20:48.859Z,22.8
2023-10-08T18:22:32.498Z,22.8
2023-10-08T18:24:16.444Z,22.8
2023-10-08T18:25:59.971Z,22.8
2023-10-08T18:27:50.631Z,22.8
2023-10-08T18:29:27.257Z,22.8
2023-10-08T18:31:11.004Z,22.8
2023-10-08T18:34:45.547Z,22.8
2023-10-08T18:36:29.165Z,22.8
2023-10-08T18:38:05.871Z,22.8
2023-10-08T18:39:49.756Z,22.8
2023-10-08T18:41:33.174Z,22.8
2023-10-08T18:43:23.930Z,22.8
2023-10-08T18:45:00.585Z,22.8
2023-10-08T18:46:44.311Z,22.8
2023-10-08T18:48:27.952Z,22.8
2023-10-08T18:50:11.796Z,22.8
2023-10-08T18:52:02.402Z,22.8
2023-10-08T18:53:39.172Z,22.8
2023-10-08T18:55:22.808Z,22.8
2023-10-08T18:57:06.551Z,22.8
2023-10-08T18:58:50.245Z,22.8
2023-10-08T19:02:17.595Z,22.8
2023-10-08T19:04:08.385Z,22.8
2023-10-08T19:05:45.062Z,22.8
2023-10-08T19:07:35.736Z,22.8
2023-10-08T19:09:12.436Z,22.8
2023-10-08T19:11:03.109Z,22.8
2023-10-08T19:12:39.816Z,22.8
2023-10-08T19:14:44.354Z,22.8
2023-10-08T19:16:07.313Z,22.8
2023-10-08T19:17:50.955Z,22.8
2023-10-08T19:19:34.725Z,22.8
2023-10-08T19:21:18.325Z,22.8
2023-10-08T19:23:02.027Z,22.8
2023-10-08T19:24:45.846Z,22.8
2023-10-08T19:26:29.417Z,22.8
2023-10-08T19:28:13.145Z,22.8
2023-10-08T19:29:56.822Z,22.8
2023-10-08T19:31:40.708Z,22.8
2023-10-08T19:33:24.323Z,22.8
2023-10-08T19:35:07.958Z,22.8
2023-10-08T19:36:51.630Z,22.7
2023-10-08T19:40:19.059Z,22.7
2023-10-08T19:42:02.771Z,22.8
2023-10-08T19:43:46.519Z,22.8
2023-10-08T19:45:30.140Z,22.8
2023-10-08T19:48:57.652Z,22.8
2023-10-08T19:50:41.287Z,22.7
2023-10-08T19:52:24.998Z,22.8
2023-10-08T19:54:08.655Z,22.8
2023-10-08T19:55:52.375Z,22.8
2023-10-08T19:57:36.068Z,22.8
2023-10-08T19:59:19.768Z,22.8
2023-10-08T20:01:03.477Z,22.8
2023-10-08T20:02:47.173Z,22.8
2023-10-08T20:06:14.561Z,22.7
2023-10-08T20:07:58.274Z,22.8
2023-10-08T20:09:41.998Z,22.7
2023-10-08T20:11:25.683Z,22.7
2023-10-08T20:13:09.383Z,22.8
2023-10-08T20:16:36.878Z,22.7
2023-10-08T20:18:20.514Z,22.7
2023-10-08T20:20:04.197Z,22.7
2023-10-08T20:21:47.892Z,22.7
2023-10-08T20:23:38.660Z,22.7
2023-10-08T20:25:15.375Z,22.7
2023-10-08T20:27:05.983Z,22.7
2023-10-08T20:28:42.758Z,22.7
2023-10-08T20:30:26.423Z,22.7
2023-10-08T20:32:10.145Z,22.8
2023-10-08T20:35:37.680Z,22.7
2023-10-08T20:37:21.209Z,22.7
2023-10-08T20:39:05.231Z,22.7
2023-10-08T20:40:55.611Z,22.7
2023-10-08T20:42:39.570Z,22.7
2023-10-08T20:44:23.028Z,22.7
2023-10-08T20:45:59.862Z,22.7
2023-10-08T20:47:43.499Z,22.7
2023-10-08T20:49:27.271Z,22.7
2023-10-08T20:53:01.605Z,22.7
2023-10-08T20:54:45.531Z,22.7
2023-10-08T20:56:22.269Z,22.7
2023-10-08T20:58:12.917Z,22.7
2023-10-08T21:03:16.902Z,22.7
2023-10-08T21:05:00.623Z,22.7
2023-10-08T21:06:44.298Z,22.7
2023-10-08T21:08:27.829Z,22.7
2023-10-08T21:10:11.652Z,22.7
2023-10-08T21:12:02.417Z,22.7
2023-10-08T21:13:39.115Z,22.7
2023-10-08T21:15:29.639Z,22.7
2023-10-08T21:17:13.431Z,22.7
2023-10-08T21:18:50.225Z,22.7
2023-10-08T21:20:40.927Z,22.7
2023-10-08T21:25:44.870Z,22.7
2023-10-08T21:27:35.689Z,22.7
2023-10-08T21:30:56.021Z,22.7
2023-10-08T21:32:46.703Z,22.7
2023-10-08T21:36:07.124Z,22.7
2023-10-08T21:39:34.477Z,22.7
2023-10-08T21:41:25.344Z,22.7
2023-10-08T21:44:52.592Z,22.7
2023-10-08T21:46:29.296Z,22.7
2023-10-08T21:51:40.556Z,22.7
2023-10-08T21:53:44.841Z,22.7
2023-10-08T21:55:14.879Z,22.7
2023-10-08T21:56:51.619Z,22.7
2023-10-08T21:58:35.308Z,22.7
2023-10-08T22:00:18.952Z,22.7
2023-10-08T22:02:09.607Z,22.7
2023-10-08T22:03:46.531Z,22.7
2023-10-08T22:05:29.987Z,22.7
2023-10-08T22:07:13.717Z,22.7
2023-10-08T22:09:04.409Z,22.7
2023-10-08T22:10:41.289Z,22.7
2023-10-08T22:14:08.512Z,22.7
2023-10-08T22:15:52.317Z,22.7
2023-10-08T22:17:35.934Z,22.7
2023-10-08T22:21:03.321Z,22.7
2023-10-08T22:24:30.933Z,22.7
2023-10-08T22:27:58.132Z,22.7
2023-10-08T22:31:25.621Z,22.7
2023-10-08T22:33:09.221Z,22.7
2023-10-08T22:34:52.926Z,22.7
2023-10-08T22:36:57.272Z,22.7
2023-10-08T22:38:27.404Z,22.7
2023-10-08T22:40:04.049Z,22.7
2023-10-08T22:41:47.727Z,22.7
2023-10-08T22:43:31.435Z,22.7
2023-10-08T22:45:22.140Z,22.7
2023-10-08T22:46:58.849Z,22.7
2023-10-08T22:48:49.555Z,22.7
2023-10-08T22:52:16.940Z,22.7
2023-10-08T22:53:53.640Z,22.7
2023-10-08T22:55:44.357Z,22.7
2023-10-08T22:57:28.052Z,22.7
2023-10-08T22:59:11.829Z,22.7
2023-10-08T23:00:55.470Z,22.7
2023-10-08T23:02:32.183Z,22.7
2023-10-08T23:04:22.877Z,22.7
2023-10-08T23:05:59.572Z,22.7
2023-10-08T23:09:26.971Z,22.7
2023-10-08T23:12:54.387Z,22.7
2023-10-08T23:14:38.090Z,22.7
2023-10-08T23:16:21.782Z,22.7
2023-10-08T23:18:12.497Z,22.7
2023-10-08T23:19:49.199Z,22.7
2023-10-08T23:21:53.547Z,22.7
2023-10-08T23:25:00.294Z,22.6
2023-10-08T23:27:04.615Z,22.7
2023-10-08T23:28:27.700Z,22.7
2023-10-08T23:30:18.589Z,22.6
2023-10-08T23:33:38.818Z,22.7
2023-10-08T23:35:22.519Z,22.6
2023-10-08T23:37:13.226Z,22.6
2023-10-08T23:38:49.930Z,22.6
2023-10-08T23:40:33.634Z,22.6
2023-10-08T23:42:17.337Z,22.6
2023-10-08T23:44:01.010Z,22.6
2023-10-08T23:45:51.771Z,22.6
2023-10-08T23:47:28.521Z,22.6
2023-10-08T23:49:19.131Z,22.6
2023-10-08T23:51:16.456Z,22.6
2023-10-08T23:52:39.548Z,22.6
2023-10-08T23:54:23.237Z,22.6
2023-10-08T23:56:13.938Z,22.6
2023-10-08T23:57:57.653Z,22.7
2023-10-08T23:59:34.386Z,22.6
